createdAt,value
2023-02-11T00:02:20.757Z,-4.63
2023-02-11T00:05:25.156Z,-4.53
2023-02-11T00:08:26.983Z,-4.57
2023-02-11T00:11:33.748Z,-4.70
2023-02-11T00:14:35.407Z,-4.73
2023-02-11T00:17:42.288Z,-4.74
2023-02-11T00:20:46.605Z,-4.76
2023-02-11T00:23:48.280Z,-4.70
2023-02-11T00:26:49.979Z,-4.68
2023-02-11T00:29:51.782Z,-4.55
2023-02-11T00:32:53.441Z,-4.54
2023-02-11T00:35:55.533Z,-4.43
2023-02-11T00:38:59.971Z,-4.46
2023-02-11T00:42:04.229Z,-4.57
2023-02-11T00:45:06.252Z,-4.62
2023-02-11T00:48:11.133Z,-4.60
2023-02-11T00:51:13.017Z,-4.66
2023-02-11T00:54:14.617Z,-4.76
2023-02-11T00:57:16.320Z,-4.83
2023-02-11T01:00:18.200Z,-4.69
2023-02-11T01:03:19.829Z,-4.67
2023-02-11T01:06:21.497Z,-4.63
2023-02-11T01:09:25.455Z,-4.61
2023-02-11T01:12:27.126Z,-4.75
2023-02-11T01:15:28.962Z,-4.83
2023-02-11T01:18:30.582Z,-4.89
2023-02-11T01:21:32.288Z,-4.90
2023-02-11T01:24:33.911Z,-4.95
2023-02-11T01:27:35.720Z,-5.01
2023-02-11T01:30:38.790Z,-4.99
2023-02-11T01:33:43.262Z,-4.90
2023-02-11T01:36:48.205Z,-4.96
2023-02-11T01:39:49.915Z,-4.99
2023-02-11T01:42:51.650Z,-4.90
2023-02-11T01:46:02.296Z,-4.85
2023-02-11T01:49:16.764Z,-4.87
2023-02-11T01:52:24.214Z,-4.93
2023-02-11T01:55:44.363Z,-4.89
2023-02-11T01:58:46.182Z,-4.89
2023-02-11T02:01:50.701Z,-4.89
2023-02-11T02:05:17.972Z,-4.91
2023-02-11T02:08:23.138Z,-4.93
2023-02-11T02:11:25.095Z,-5.01
2023-02-11T02:14:26.808Z,-5.09
2023-02-11T02:17:38.067Z,-5.09
2023-02-11T02:21:13.190Z,-5.07
2023-02-11T02:24:33.220Z,-5.08
2023-02-11T02:27:40.258Z,-5.08
2023-02-11T02:30:51.358Z,-5.06
2023-02-11T02:34:00.544Z,-5.06
2023-02-11T02:37:35.398Z,-4.98
2023-02-11T02:40:57.152Z,-4.83
2023-02-11T02:43:58.901Z,-4.97
2023-02-11T02:47:00.668Z,-5.00
2023-02-11T02:50:02.830Z,-5.03
2023-02-11T02:53:48.354Z,-5.01
2023-02-11T02:57:04.812Z,-4.94
2023-02-11T03:00:14.433Z,-4.91
2023-02-11T03:03:20.531Z,-5.06
2023-02-11T03:06:34.556Z,-5.17
2023-02-11T03:09:54.975Z,-5.03
2023-02-11T03:12:56.775Z,-4.94
2023-02-11T03:15:58.570Z,-4.95
2023-02-11T03:19:05.901Z,-5.01
2023-02-11T03:22:11.425Z,-5.06
2023-02-11T03:25:13.099Z,-5.04
2023-02-11T03:28:32.575Z,-5.08
2023-02-11T03:31:56.322Z,-5.06
2023-02-11T03:35:11.486Z,-5.03
2023-02-11T03:38:34.990Z,-4.99
2023-02-11T03:41:36.717Z,-5.01
2023-02-11T03:44:41.443Z,-4.94
2023-02-11T03:47:46.309Z,-5.02
2023-02-11T03:50:48.313Z,-5.05
2023-02-11T03:53:50.053Z,-5.03
2023-02-11T03:56:53.443Z,-5.04
2023-02-11T04:00:04.452Z,-4.95
2023-02-11T04:03:06.814Z,-4.87
2023-02-11T04:06:08.518Z,-5.07
2023-02-11T04:09:10.598Z,-5.07
2023-02-11T04:12:12.319Z,-5.04
2023-02-11T04:15:13.994Z,-5.07
2023-02-11T04:18:15.647Z,-5.03
2023-02-11T04:21:17.302Z,-5.04
2023-02-11T04:24:18.944Z,-5.11
2023-02-11T04:27:20.685Z,-5.11
2023-02-11T04:30:22.390Z,-5.08
2023-02-11T04:33:24.129Z,-5.10
2023-02-11T04:36:25.863Z,-4.99
2023-02-11T04:39:27.527Z,-4.99
2023-02-11T04:42:29.223Z,-5.00
2023-02-11T04:45:30.945Z,-4.89
2023-02-11T04:48:32.610Z,-4.85
2023-02-11T04:51:34.213Z,-4.87
2023-02-11T04:54:35.871Z,-4.85
2023-02-11T04:57:37.538Z,-4.76
2023-02-11T05:00:39.205Z,-4.72
2023-02-11T05:03:41.100Z,-4.68
2023-02-11T05:06:42.855Z,-4.65
2023-02-11T05:09:44.524Z,-4.67
2023-02-11T05:12:48.521Z,-4.63
2023-02-11T05:15:50.537Z,-4.57
2023-02-11T05:18:53.756Z,-4.40
2023-02-11T05:22:02.589Z,-4.54
2023-02-11T05:25:05.462Z,-4.62
2023-02-11T05:28:07.353Z,-4.56
2023-02-11T05:31:09.192Z,-4.31
2023-02-11T05:34:10.976Z,-4.26
2023-02-11T05:37:12.756Z,-4.36
2023-02-11T05:40:14.504Z,-4.33
2023-02-11T05:43:16.232Z,-4.25
2023-02-11T05:46:18.049Z,-4.26
2023-02-11T05:49:19.778Z,-4.32
2023-02-11T05:52:23.726Z,-4.19
2023-02-11T05:55:25.365Z,-4.10
2023-02-11T05:58:27.098Z,-4.11
2023-02-11T06:01:29.372Z,-4.07
2023-02-11T06:04:31.088Z,-4.25
2023-02-11T06:07:32.754Z,-4.13
2023-02-11T06:10:34.452Z,-4.01
2023-02-11T06:13:36.406Z,-3.99
2023-02-11T06:16:38.193Z,-3.94
2023-02-11T06:19:39.812Z,-3.85
2023-02-11T06:22:41.551Z,-3.87
2023-02-11T06:25:43.206Z,-3.86
2023-02-11T06:28:45.068Z,-3.85
2023-02-11T06:31:49.508Z,-3.68
2023-02-11T06:34:51.329Z,-3.59
2023-02-11T06:37:54.080Z,-3.57
2023-02-11T06:40:57.935Z,-3.45
2023-02-11T06:43:59.680Z,-3.50
2023-02-11T06:47:01.354Z,-3.60
2023-02-11T06:50:05.603Z,-3.69
2023-02-11T06:53:07.298Z,-3.62
2023-02-11T06:56:10.850Z,-3.65
2023-02-11T06:59:16.725Z,-3.70
2023-02-11T07:02:20.766Z,-3.66
2023-02-11T07:05:22.729Z,-3.66
2023-02-11T07:08:24.327Z,-3.57
2023-02-11T07:11:33.498Z,-3.49
2023-02-11T07:14:35.155Z,-3.42
2023-02-11T07:17:36.827Z,-3.35
2023-02-11T07:20:39.046Z,-3.27
2023-02-11T07:23:41.427Z,-3.28
2023-02-11T07:26:43.162Z,-3.14
2023-02-11T07:29:47.008Z,-3.14
2023-02-11T07:32:49.047Z,-3.06
2023-02-11T07:35:50.939Z,-3.06
2023-02-11T07:38:52.895Z,-3.00
2023-02-11T07:41:54.678Z,-2.96
2023-02-11T07:44:58.188Z,-2.74
2023-02-11T07:47:59.857Z,-2.51
2023-02-11T07:51:28.475Z,-2.64
2023-02-11T07:54:34.693Z,-2.59
2023-02-11T07:57:39.348Z,-2.65
2023-02-11T08:00:41.279Z,-2.64
2023-02-11T08:03:43.258Z,-2.50
2023-02-11T08:06:44.920Z,-2.21
2023-02-11T08:09:46.620Z,-2.01
2023-02-11T08:12:48.365Z,-2.02
2023-02-11T08:15:59.654Z,-1.86
2023-02-11T08:19:03.297Z,-1.96
2023-02-11T08:22:07.305Z,-1.99
2023-02-11T08:25:08.973Z,-1.96
2023-02-11T08:28:10.605Z,-1.84
2023-02-11T08:31:16.161Z,-1.66
2023-02-11T08:34:22.090Z,-1.60
2023-02-11T08:37:23.846Z,-1.56
2023-02-11T08:40:25.595Z,-1.57
2023-02-11T08:43:27.254Z,-1.29
2023-02-11T08:46:29.043Z,-1.46
2023-02-11T08:49:32.327Z,-1.33
2023-02-11T08:52:34.051Z,-0.84
2023-02-11T08:55:36.003Z,1.91
2023-02-11T08:58:38.053Z,3.32
2023-02-11T09:01:39.797Z,5.56
2023-02-11T09:04:43.944Z,3.73
2023-02-11T09:07:45.761Z,1.77
2023-02-11T09:10:50.210Z,2.47
2023-02-11T09:13:54.438Z,4.82
2023-02-11T09:17:09.909Z,5.97
2023-02-11T09:20:17.783Z,6.10
2023-02-11T09:23:25.026Z,6.21
2023-02-11T09:26:33.721Z,6.94
2023-02-11T09:29:45.634Z,7.22
2023-02-11T09:32:49.784Z,8.59
2023-02-11T09:36:01.185Z,8.03
2023-02-11T09:39:08.226Z,8.08
2023-02-11T09:42:16.036Z,9.21
2023-02-11T09:46:01.539Z,9.01
2023-02-11T09:50:06.230Z,8.39
2023-02-11T10:13:57.877Z,7.89
2023-02-11T12:19:35.476Z,6.72
